CYHK

Details ICAO CYHK (YHK)
Name Gjoa Haven
Region Canada
Timezone America/Cambridge_Bay (UTC-6.0)
Plans Departing 9
Arriving 15
Stats Elevation 154 ft / 47 m (AMSL)
Location 68.635447° -95.850245°
Runways 1
Magnetic Variation 7.242° W
Sunrise 2018-05-21 07:02:10 UTC / 2018-05-21 01:02:10 Local
Sunset 2018-05-22 05:40:43 UTC / 2018-05-21 23:40:43 Local
Advertisement - Login to hide

Runways

ID Width Length Bearing (true) Bearing (mag) Surface Threshold Offset Overrun Length
13T 98 ft / 30 m 4,465 ft / 1,361 m 126.79° 134.03° Gravel 0 ft / 0 m 0 ft / 0 m
31T 98 ft / 30 m 4,465 ft / 1,361 m 306.81° 314.05° Gravel 0 ft / 0 m 0 ft / 0 m

Map

Weather


0- 5 10 15 20 25 30 35+ Temperature / ° C

Clouds and Precipitation
Forecast for 2018-05-21 12:00 UTC. Updated 21 minutes ago

Ground ~20,000 ft ~40,000 ft Winds

METAR

CYHK 211100Z AUTO 32010KT 9SM -SN OVC036 M08/M09 A3000 RMK SLP165

TAF

TAF CYHK 210538Z 2106/2118 32012KT P6SM -SN FEW008 OVC040 TEMPO 2106/2118 5SM -SN BR SCT008 OVC020 PROB30 2108/2115 2SM BR BKN006 RMK FCST BASED ON AUTO OBS. NXT FCST BY 211200Z

Frequencies

Recorded 128.69 MHz AWOS
Unicom 122.10 MHz MULTICOM
Warning: Do not use this data for real-world aviation or navigation. No guarantee of current accuracy is given.